sensor_id;sensor_type;location;lat;lon;timestamp;pressure;altitude;pressure_sealevel;temperature;humidity
34586;BME280;20816;50.950;11.108;2023-09-19T00:00:23;97676.28;;;17.91;100.00
34586;BME280;20816;50.950;11.108;2023-09-19T00:02:54;97679.16;;;17.88;100.00
34586;BME280;20816;50.950;11.108;2023-09-19T00:05:21;97671.75;;;17.93;100.00
34586;BME280;20816;50.950;11.108;2023-09-19T00:07:51;97667.72;;;18.00;100.00
34586;BME280;20816;50.950;11.108;2023-09-19T00:10:21;97672.03;;;17.88;100.00
34586;BME280;20816;50.950;11.108;2023-09-19T00:12:51;97676.50;;;17.88;100.00
34586;BME280;20816;50.950;11.108;2023-09-19T00:15:26;97666.59;;;17.90;100.00
34586;BME280;20816;50.950;11.108;2023-09-19T00:17:55;97677.66;;;17.84;100.00
34586;BME280;20816;50.950;11.108;2023-09-19T00:20:22;97662.34;;;17.87;100.00
34586;BME280;20816;50.950;11.108;2023-09-19T00:22:50;97667.06;;;17.97;100.00
34586;BME280;20816;50.950;11.108;2023-09-19T00:25:19;97665.47;;;17.94;100.00
34586;BME280;20816;50.950;11.108;2023-09-19T00:27:47;97667.66;;;17.87;100.00
34586;BME280;20816;50.950;11.108;2023-09-19T00:30:17;97669.13;;;17.79;100.00
34586;BME280;20816;50.950;11.108;2023-09-19T00:32:48;97673.38;;;17.81;100.00
34586;BME280;20816;50.950;11.108;2023-09-19T00:35:16;97672.75;;;17.78;100.00
34586;BME280;20816;50.950;11.108;2023-09-19T00:37:43;97676.75;;;17.71;100.00
34586;BME280;20816;50.950;11.108;2023-09-19T00:40:10;97671.63;;;17.68;100.00
34586;BME280;20816;50.950;11.108;2023-09-19T00:42:39;97682.25;;;17.68;100.00
34586;BME280;20816;50.950;11.108;2023-09-19T00:45:08;97689.66;;;17.62;100.00
34586;BME280;20816;50.950;11.108;2023-09-19T00:47:49;97681.84;;;17.74;100.00
34586;BME280;20816;50.950;11.108;2023-09-19T00:50:18;97693.72;;;17.68;100.00
34586;BME280;20816;50.950;11.108;2023-09-19T00:52:50;97690.28;;;17.66;100.00
34586;BME280;20816;50.950;11.108;2023-09-19T00:55:19;97701.03;;;17.64;100.00
34586;BME280;20816;50.950;11.108;2023-09-19T00:57:47;97702.00;;;17.63;100.00
34586;BME280;20816;50.950;11.108;2023-09-19T01:00:16;97706.91;;;17.70;100.00
34586;BME280;20816;50.950;11.108;2023-09-19T01:02:47;97706.06;;;17.69;100.00
34586;BME280;20816;50.950;11.108;2023-09-19T01:05:15;97706.06;;;17.69;100.00
34586;BME280;20816;50.950;11.108;2023-09-19T01:07:42;97706.56;;;17.61;100.00
34586;BME280;20816;50.950;11.108;2023-09-19T01:10:13;97709.81;;;17.52;100.00
34586;BME280;20816;50.950;11.108;2023-09-19T01:26:11;97734.50;;;17.26;100.00
34586;BME280;20816;50.950;11.108;2023-09-19T01:31:37;97730.34;;;17.07;100.00
34586;BME280;20816;50.950;11.108;2023-09-19T01:34:04;97744.66;;;17.05;100.00
34586;BME280;20816;50.950;11.108;2023-09-19T01:36:32;97742.09;;;17.03;100.00
34586;BME280;20816;50.950;11.108;2023-09-19T01:39:07;97745.34;;;16.94;100.00
34586;BME280;20816;50.950;11.108;2023-09-19T01:47:33;97760.22;;;16.97;100.00
34586;BME280;20816;50.950;11.108;2023-09-19T01:52:46;97758.38;;;16.83;100.00
34586;BME280;20816;50.950;11.108;2023-09-19T01:55:15;97761.06;;;16.97;100.00
34586;BME280;20816;50.950;11.108;2023-09-19T01:57:51;97762.75;;;16.98;100.00
34586;BME280;20816;50.950;11.108;2023-09-19T02:00:21;97761.44;;;16.91;100.00
34586;BME280;20816;50.950;11.108;2023-09-19T02:02:50;97762.56;;;16.87;100.00
34586;BME280;20816;50.950;11.108;2023-09-19T02:05:23;97763.53;;;16.86;100.00
34586;BME280;20816;50.950;11.108;2023-09-19T02:07:54;97753.94;;;16.84;100.00
34586;BME280;20816;50.950;11.108;2023-09-19T02:10:22;97758.94;;;16.74;100.00
34586;BME280;20816;50.950;11.108;2023-09-19T02:12:50;97764.56;;;16.68;100.00
34586;BME280;20816;50.950;11.108;2023-09-19T02:15:17;97771.78;;;16.66;100.00
34586;BME280;20816;50.950;11.108;2023-09-19T02:17:44;97767.53;;;16.63;100.00
34586;BME280;20816;50.950;11.108;2023-09-19T02:20:12;97766.66;;;16.63;100.00
34586;BME280;20816;50.950;11.108;2023-09-19T02:22:42;97761.69;;;16.72;100.00
34586;BME280;20816;50.950;11.108;2023-09-19T02:25:08;97774.22;;;16.70;100.00
34586;BME280;20816;50.950;11.108;2023-09-19T02:27:35;97767.56;;;16.77;100.00
34586;BME280;20816;50.950;11.108;2023-09-19T02:30:03;97774.88;;;16.74;100.00
34586;BME280;20816;50.950;11.108;2023-09-19T02:32:30;97772.97;;;16.76;100.00
34586;BME280;20816;50.950;11.108;2023-09-19T02:34:57;97771.25;;;16.75;100.00
34586;BME280;20816;50.950;11.108;2023-09-19T02:37:25;97772.69;;;16.80;100.00
34586;BME280;20816;50.950;11.108;2023-09-19T02:39:51;97772.72;;;16.65;100.00
34586;BME280;20816;50.950;11.108;2023-09-19T02:42:18;97775.59;;;16.62;100.00
34586;BME280;20816;50.950;11.108;2023-09-19T02:44:45;97789.28;;;16.70;100.00
34586;BME280;20816;50.950;11.108;2023-09-19T02:47:13;97782.00;;;16.58;100.00
34586;BME280;20816;50.950;11.108;2023-09-19T02:49:41;97777.84;;;16.53;100.00
34586;BME280;20816;50.950;11.108;2023-09-19T02:52:09;97780.88;;;16.62;100.00
34586;BME280;20816;50.950;11.108;2023-09-19T02:54:37;97790.16;;;16.54;100.00
34586;BME280;20816;50.950;11.108;2023-09-19T02:57:04;97793.56;;;16.57;100.00
34586;BME280;20816;50.950;11.108;2023-09-19T02:59:33;97786.19;;;16.62;100.00
34586;BME280;20816;50.950;11.108;2023-09-19T03:01:59;97791.50;;;16.62;100.00
34586;BME280;20816;50.950;11.108;2023-09-19T03:04:27;97793.25;;;16.61;100.00
34586;BME280;20816;50.950;11.108;2023-09-19T03:06:54;97809.13;;;16.63;100.00
34586;BME280;20816;50.950;11.108;2023-09-19T03:09:25;97802.28;;;16.59;100.00
34586;BME280;20816;50.950;11.108;2023-09-19T03:11:51;97807.78;;;16.56;100.00
34586;BME280;20816;50.950;11.108;2023-09-19T03:14:18;97808.44;;;16.59;100.00
34586;BME280;20816;50.950;11.108;2023-09-19T03:16:46;97813.75;;;16.59;100.00
34586;BME280;20816;50.950;11.108;2023-09-19T03:19:13;97819.50;;;16.51;100.00
34586;BME280;20816;50.950;11.108;2023-09-19T03:21:41;97812.97;;;16.57;100.00
34586;BME280;20816;50.950;11.108;2023-09-19T03:24:08;97819.53;;;16.66;100.00
34586;BME280;20816;50.950;11.108;2023-09-19T03:26:35;97816.69;;;16.54;100.00
34586;BME280;20816;50.950;11.108;2023-09-19T03:29:05;97824.44;;;16.58;100.00
34586;BME280;20816;50.950;11.108;2023-09-19T03:31:36;97821.19;;;16.52;100.00
34586;BME280;20816;50.950;11.108;2023-09-19T03:34:03;97826.59;;;16.51;100.00
34586;BME280;20816;50.950;11.108;2023-09-19T03:36:30;97827.81;;;16.45;100.00
34586;BME280;20816;50.950;11.108;2023-09-19T03:38:57;97831.59;;;16.41;100.00
34586;BME280;20816;50.950;11.108;2023-09-19T03:41:24;97830.22;;;16.34;100.00
34586;BME280;20816;50.950;11.108;2023-09-19T03:43:50;97839.47;;;16.27;100.00
34586;BME280;20816;50.950;11.108;2023-09-19T03:46:17;97840.59;;;16.23;100.00
34586;BME280;20816;50.950;11.108;2023-09-19T03:48:44;97841.78;;;16.17;100.00
34586;BME280;20816;50.950;11.108;2023-09-19T03:51:11;97843.25;;;16.23;100.00
34586;BME280;20816;50.950;11.108;2023-09-19T03:53:37;97840.09;;;16.16;100.00
34586;BME280;20816;50.950;11.108;2023-09-19T03:56:04;97838.19;;;16.18;100.00
34586;BME280;20816;50.950;11.108;2023-09-19T03:58:31;97845.91;;;16.07;100.00
34586;BME280;20816;50.950;11.108;2023-09-19T04:00:58;97844.72;;;16.13;100.00
34586;BME280;20816;50.950;11.108;2023-09-19T04:03:25;97847.72;;;16.07;100.00
34586;BME280;20816;50.950;11.108;2023-09-19T04:06:01;97845.72;;;16.10;100.00
34586;BME280;20816;50.950;11.108;2023-09-19T04:08:29;97844.63;;;16.14;100.00
34586;BME280;20816;50.950;11.108;2023-09-19T04:10:56;97849.41;;;16.08;100.00
34586;BME280;20816;50.950;11.108;2023-09-19T04:13:23;97855.47;;;16.10;100.00
34586;BME280;20816;50.950;11.108;2023-09-19T04:15:50;97852.50;;;16.16;100.00
34586;BME280;20816;50.950;11.108;2023-09-19T04:18:16;97853.75;;;16.24;100.00
34586;BME280;20816;50.950;11.108;2023-09-19T04:20:48;97862.22;;;16.31;100.00
34586;BME280;20816;50.950;11.108;2023-09-19T04:23:16;97863.22;;;16.44;100.00
34586;BME280;20816;50.950;11.108;2023-09-19T04:25:43;97860.41;;;16.47;100.00
34586;BME280;20816;50.950;11.108;2023-09-19T04:28:10;97868.38;;;16.47;100.00
34586;BME280;20816;50.950;11.108;2023-09-19T04:30:37;97873.84;;;16.44;98.18
34586;BME280;20816;50.950;11.108;2023-09-19T04:33:07;97876.44;;;16.46;97.48
34586;BME280;20816;50.950;11.108;2023-09-19T04:35:34;97876.84;;;16.38;94.41
34586;BME280;20816;50.950;11.108;2023-09-19T04:38:01;97882.31;;;16.35;93.84
34586;BME280;20816;50.950;11.108;2023-09-19T04:40:29;97879.50;;;16.38;93.57
34586;BME280;20816;50.950;11.108;2023-09-19T04:42:56;97883.59;;;16.28;91.69
34586;BME280;20816;50.950;11.108;2023-09-19T04:45:24;97888.06;;;16.27;90.92
34586;BME280;20816;50.950;11.108;2023-09-19T04:47:51;97884.31;;;16.16;90.07
34586;BME280;20816;50.950;11.108;2023-09-19T04:50:17;97888.56;;;16.18;88.26
34586;BME280;20816;50.950;11.108;2023-09-19T04:52:45;97887.72;;;16.18;87.79
34586;BME280;20816;50.950;11.108;2023-09-19T04:55:14;97890.38;;;16.18;86.84
34586;BME280;20816;50.950;11.108;2023-09-19T04:57:46;97887.13;;;16.13;86.68
34586;BME280;20816;50.950;11.108;2023-09-19T05:00:18;97884.22;;;16.02;86.85
34586;BME280;20816;50.950;11.108;2023-09-19T05:02:45;97886.72;;;16.05;87.14
34586;BME280;20816;50.950;11.108;2023-09-19T05:05:12;97889.09;;;16.09;86.23
34586;BME280;20816;50.950;11.108;2023-09-19T05:07:46;97884.31;;;16.00;87.10
34586;BME280;20816;50.950;11.108;2023-09-19T05:10:14;97894.03;;;16.00;87.71
34586;BME280;20816;50.950;11.108;2023-09-19T05:12:41;97903.09;;;15.95;87.52
34586;BME280;20816;50.950;11.108;2023-09-19T05:15:10;97909.25;;;15.96;88.35
34586;BME280;20816;50.950;11.108;2023-09-19T05:17:36;97905.66;;;15.81;89.72
34586;BME280;20816;50.950;11.108;2023-09-19T05:20:03;97908.22;;;15.83;90.23
34586;BME280;20816;50.950;11.108;2023-09-19T05:23:11;97908.22;;;15.83;90.50
34586;BME280;20816;50.950;11.108;2023-09-19T05:25:39;97912.66;;;15.82;91.00
34586;BME280;20816;50.950;11.108;2023-09-19T05:28:08;97916.09;;;15.84;91.77
34586;BME280;20816;50.950;11.108;2023-09-19T05:30:35;97923.28;;;15.82;92.51
34586;BME280;20816;50.950;11.108;2023-09-19T05:33:03;97927.44;;;15.86;93.53
34586;BME280;20816;50.950;11.108;2023-09-19T05:35:31;97927.22;;;15.91;94.50
34586;BME280;20816;50.950;11.108;2023-09-19T05:37:58;97944.72;;;15.93;95.80
34586;BME280;20816;50.950;11.108;2023-09-19T05:40:25;97947.91;;;16.00;97.01
34586;BME280;20816;50.950;11.108;2023-09-19T05:42:52;97951.25;;;16.19;97.16
34586;BME280;20816;50.950;11.108;2023-09-19T05:45:19;97954.63;;;16.23;97.13
34586;BME280;20816;50.950;11.108;2023-09-19T05:47:50;97944.97;;;16.22;97.12
34586;BME280;20816;50.950;11.108;2023-09-19T05:50:18;97950.41;;;16.35;96.28
34586;BME280;20816;50.950;11.108;2023-09-19T05:52:53;97953.16;;;16.49;95.27
34586;BME280;20816;50.950;11.108;2023-09-19T05:55:20;97949.75;;;16.63;94.00
34586;BME280;20816;50.950;11.108;2023-09-19T05:57:51;97948.50;;;16.70;93.28
34586;BME280;20816;50.950;11.108;2023-09-19T06:00:19;97954.22;;;16.78;91.70
34586;BME280;20816;50.950;11.108;2023-09-19T06:05:19;97958.88;;;17.04;90.74
34586;BME280;20816;50.950;11.108;2023-09-19T06:07:46;97956.09;;;17.22;89.63
34586;BME280;20816;50.950;11.108;2023-09-19T06:10:13;97948.47;;;17.16;88.50
34586;BME280;20816;50.950;11.108;2023-09-19T06:12:42;97949.81;;;17.23;87.84
34586;BME280;20816;50.950;11.108;2023-09-19T06:15:16;97943.50;;;17.40;87.25
34586;BME280;20816;50.950;11.108;2023-09-19T06:17:49;97947.75;;;17.42;87.00
34586;BME280;20816;50.950;11.108;2023-09-19T06:20:17;97939.34;;;17.35;87.42
34586;BME280;20816;50.950;11.108;2023-09-19T06:22:45;97944.34;;;17.40;86.13
34586;BME280;20816;50.950;11.108;2023-09-19T06:25:13;97946.63;;;17.32;87.01
34586;BME280;20816;50.950;11.108;2023-09-19T06:27:52;97941.13;;;17.35;86.84
34586;BME280;20816;50.950;11.108;2023-09-19T06:30:21;97935.47;;;17.55;86.25
34586;BME280;20816;50.950;11.108;2023-09-19T06:32:57;97944.78;;;17.62;85.97
34586;BME280;20816;50.950;11.108;2023-09-19T06:35:26;97944.75;;;17.48;85.71
34586;BME280;20816;50.950;11.108;2023-09-19T06:37:53;97957.28;;;17.46;86.87
34586;BME280;20816;50.950;11.108;2023-09-19T06:40:20;97954.81;;;17.43;86.29
34586;BME280;20816;50.950;11.108;2023-09-19T06:42:50;97955.38;;;17.48;87.30
34586;BME280;20816;50.950;11.108;2023-09-19T06:45:17;97956.31;;;17.47;86.55
34586;BME280;20816;50.950;11.108;2023-09-19T06:47:46;97964.66;;;17.71;86.10
34586;BME280;20816;50.950;11.108;2023-09-19T06:50:20;97961.81;;;17.88;85.83
34586;BME280;20816;50.950;11.108;2023-09-19T06:52:54;97964.38;;;17.90;85.48
34586;BME280;20816;50.950;11.108;2023-09-19T06:55:22;97972.44;;;17.88;84.43
34586;BME280;20816;50.950;11.108;2023-09-19T06:57:52;97978.47;;;17.92;84.10
34586;BME280;20816;50.950;11.108;2023-09-19T07:00:21;97994.78;;;18.14;82.98
34586;BME280;20816;50.950;11.108;2023-09-19T07:02:59;97984.13;;;18.14;83.72
34586;BME280;20816;50.950;11.108;2023-09-19T07:05:27;97988.88;;;18.24;83.26
34586;BME280;20816;50.950;11.108;2023-09-19T07:07:54;97996.84;;;18.24;83.06
34586;BME280;20816;50.950;11.108;2023-09-19T07:10:22;97997.81;;;18.23;83.02
34586;BME280;20816;50.950;11.108;2023-09-19T07:13:00;98005.50;;;18.27;82.29
34586;BME280;20816;50.950;11.108;2023-09-19T07:15:28;98003.13;;;18.23;83.38
34586;BME280;20816;50.950;11.108;2023-09-19T07:17:56;98010.16;;;18.24;82.68
34586;BME280;20816;50.950;11.108;2023-09-19T07:20:24;98009.22;;;18.10;83.91
34586;BME280;20816;50.950;11.108;2023-09-19T07:22:55;98021.00;;;18.20;83.75
34586;BME280;20816;50.950;11.108;2023-09-19T07:25:21;98026.50;;;18.03;83.75
34586;BME280;20816;50.950;11.108;2023-09-19T07:27:49;98029.38;;;18.00;84.36
34586;BME280;20816;50.950;11.108;2023-09-19T07:30:17;98037.50;;;17.97;84.63
34586;BME280;20816;50.950;11.108;2023-09-19T07:32:44;98050.69;;;17.99;85.01
34586;BME280;20816;50.950;11.108;2023-09-19T07:35:11;98053.84;;;18.05;85.11
34586;BME280;20816;50.950;11.108;2023-09-19T07:37:38;98052.72;;;17.95;85.41
34586;BME280;20816;50.950;11.108;2023-09-19T07:40:06;98068.47;;;17.98;85.09
34586;BME280;20816;50.950;11.108;2023-09-19T07:42:42;98068.75;;;17.93;86.00
34586;BME280;20816;50.950;11.108;2023-09-19T07:45:10;98072.19;;;18.10;85.38
34586;BME280;20816;50.950;11.108;2023-09-19T07:47:47;98069.25;;;18.14;85.57
34586;BME280;20816;50.950;11.108;2023-09-19T07:50:16;98076.84;;;18.06;85.73
34586;BME280;20816;50.950;11.108;2023-09-19T07:52:44;98079.72;;;18.17;85.92
34586;BME280;20816;50.950;11.108;2023-09-19T07:55:11;98076.09;;;18.47;84.89
34586;BME280;20816;50.950;11.108;2023-09-19T07:57:43;98086.75;;;18.47;84.67
34586;BME280;20816;50.950;11.108;2023-09-19T08:00:10;98084.84;;;18.20;84.55
34586;BME280;20816;50.950;11.108;2023-09-19T08:02:37;98092.00;;;17.90;86.30
34586;BME280;20816;50.950;11.108;2023-09-19T08:05:09;98096.38;;;17.91;85.58
34586;BME280;20816;50.950;11.108;2023-09-19T08:07:37;98088.16;;;18.24;84.94
34586;BME280;20816;50.950;11.108;2023-09-19T08:10:06;98095.31;;;18.52;83.57
34586;BME280;20816;50.950;11.108;2023-09-19T08:12:43;98095.44;;;19.20;81.14
34586;BME280;20816;50.950;11.108;2023-09-19T08:15:14;98106.53;;;19.54;78.58
34586;BME280;20816;50.950;11.108;2023-09-19T08:17:41;98105.44;;;19.44;77.20
34586;BME280;20816;50.950;11.108;2023-09-19T08:20:09;98102.28;;;19.24;77.01
34586;BME280;20816;50.950;11.108;2023-09-19T08:22:47;98108.97;;;19.03;78.02
34586;BME280;20816;50.950;11.108;2023-09-19T08:25:15;98114.91;;;18.80;78.28
34586;BME280;20816;50.950;11.108;2023-09-19T08:27:47;98121.56;;;18.58;76.91
34586;BME280;20816;50.950;11.108;2023-09-19T08:30:20;98116.53;;;18.68;75.72
34586;BME280;20816;50.950;11.108;2023-09-19T08:32:51;98116.44;;;18.98;75.83
34586;BME280;20816;50.950;11.108;2023-09-19T08:35:18;98119.41;;;19.20;73.68
34586;BME280;20816;50.950;11.108;2023-09-19T08:37:46;98117.66;;;18.78;70.28
34586;BME280;20816;50.950;11.108;2023-09-19T08:40:12;98110.56;;;19.20;70.20
34586;BME280;20816;50.950;11.108;2023-09-19T08:42:49;98115.56;;;19.39;70.32
34586;BME280;20816;50.950;11.108;2023-09-19T08:45:20;98121.78;;;19.79;69.49
34586;BME280;20816;50.950;11.108;2023-09-19T08:48:11;98120.19;;;20.16;65.58
34586;BME280;20816;50.950;11.108;2023-09-19T08:50:52;98117.25;;;19.94;65.12
34586;BME280;20816;50.950;11.108;2023-09-19T08:53:34;98115.69;;;20.16;62.64
34586;BME280;20816;50.950;11.108;2023-09-19T08:56:07;98112.72;;;20.21;62.94
34586;BME280;20816;50.950;11.108;2023-09-19T08:58:43;98117.53;;;20.41;62.36
34586;BME280;20816;50.950;11.108;2023-09-19T09:01:11;98117.75;;;20.38;61.97
34586;BME280;20816;50.950;11.108;2023-09-19T09:03:40;98120.97;;;20.56;61.64
34586;BME280;20816;50.950;11.108;2023-09-19T09:06:08;98111.06;;;20.46;60.85
34586;BME280;20816;50.950;11.108;2023-09-19T09:08:40;98119.81;;;20.48;62.15
34586;BME280;20816;50.950;11.108;2023-09-19T09:11:06;98121.63;;;19.95;62.24
34586;BME280;20816;50.950;11.108;2023-09-19T09:13:36;98117.81;;;19.99;62.55
34586;BME280;20816;50.950;11.108;2023-09-19T09:16:03;98099.69;;;20.29;62.65
34586;BME280;20816;50.950;11.108;2023-09-19T09:18:30;98106.75;;;20.30;62.42
34586;BME280;20816;50.950;11.108;2023-09-19T09:20:57;98114.41;;;20.35;62.70
34586;BME280;20816;50.950;11.108;2023-09-19T09:23:23;98110.19;;;20.45;62.48
34586;BME280;20816;50.950;11.108;2023-09-19T09:25:53;98108.25;;;20.60;61.75
34586;BME280;20816;50.950;11.108;2023-09-19T09:28:25;98115.41;;;20.59;61.51
34586;BME280;20816;50.950;11.108;2023-09-19T09:30:53;98104.84;;;20.58;61.63
34586;BME280;20816;50.950;11.108;2023-09-19T09:33:20;98095.56;;;20.63;60.83
34586;BME280;20816;50.950;11.108;2023-09-19T09:35:51;98105.50;;;20.61;61.35
34586;BME280;20816;50.950;11.108;2023-09-19T09:38:26;98099.81;;;20.66;61.19
34586;BME280;20816;50.950;11.108;2023-09-19T09:41:00;98099.88;;;20.90;60.66
34586;BME280;20816;50.950;11.108;2023-09-19T09:43:37;98099.88;;;21.03;59.52
34586;BME280;20816;50.950;11.108;2023-09-19T09:46:14;98109.09;;;20.73;60.50
34586;BME280;20816;50.950;11.108;2023-09-19T09:48:55;98091.56;;;20.82;60.81
34586;BME280;20816;50.950;11.108;2023-09-19T09:51:41;98108.47;;;20.69;59.58
34586;BME280;20816;50.950;11.108;2023-09-19T09:54:15;98103.84;;;20.84;59.68
34586;BME280;20816;50.950;11.108;2023-09-19T09:56:56;98098.16;;;21.02;59.05
34586;BME280;20816;50.950;11.108;2023-09-19T09:59:47;98105.88;;;20.93;59.60
34586;BME280;20816;50.950;11.108;2023-09-19T10:02:17;98105.66;;;20.96;60.22
34586;BME280;20816;50.950;11.108;2023-09-19T10:04:52;98107.53;;;21.07;59.40
34586;BME280;20816;50.950;11.108;2023-09-19T10:07:30;98103.50;;;21.02;59.43
34586;BME280;20816;50.950;11.108;2023-09-19T10:10:06;98106.47;;;21.10;59.17
34586;BME280;20816;50.950;11.108;2023-09-19T10:12:44;98115.84;;;21.28;59.93
34586;BME280;20816;50.950;11.108;2023-09-19T10:15:17;98116.94;;;21.49;59.42
34586;BME280;20816;50.950;11.108;2023-09-19T10:17:47;98106.78;;;21.18;60.17
34586;BME280;20816;50.950;11.108;2023-09-19T10:20:16;98101.72;;;21.74;59.78
34586;BME280;20816;50.950;11.108;2023-09-19T10:23:09;98105.63;;;22.05;59.24
34586;BME280;20816;50.950;11.108;2023-09-19T10:25:38;98101.66;;;22.22;58.93
34586;BME280;20816;50.950;11.108;2023-09-19T10:28:10;98099.75;;;22.24;58.97
34586;BME280;20816;50.950;11.108;2023-09-19T10:30:47;98113.13;;;21.65;60.08
34586;BME280;20816;50.950;11.108;2023-09-19T10:33:16;98105.94;;;21.89;60.72
34586;BME280;20816;50.950;11.108;2023-09-19T10:35:45;98100.56;;;21.89;59.63
34586;BME280;20816;50.950;11.108;2023-09-19T10:38:14;98106.81;;;22.36;59.50
34586;BME280;20816;50.950;11.108;2023-09-19T10:40:49;98098.84;;;22.81;58.62
34586;BME280;20816;50.950;11.108;2023-09-19T10:43:17;98099.31;;;22.75;58.85
34586;BME280;20816;50.950;11.108;2023-09-19T10:45:51;98111.66;;;22.20;59.88
34586;BME280;20816;50.950;11.108;2023-09-19T10:48:21;98102.94;;;22.51;59.55
34586;BME280;20816;50.950;11.108;2023-09-19T10:51:15;98099.38;;;22.28;59.72
34586;BME280;20816;50.950;11.108;2023-09-19T10:53:59;98110.34;;;22.36;59.60
34586;BME280;20816;50.950;11.108;2023-09-19T10:56:33;98099.03;;;22.33;59.60
34586;BME280;20816;50.950;11.108;2023-09-19T10:59:11;98104.41;;;22.55;59.19
34586;BME280;20816;50.950;11.108;2023-09-19T11:01:50;98102.47;;;22.69;59.38
34586;BME280;20816;50.950;11.108;2023-09-19T11:04:28;98096.44;;;22.89;58.47
34586;BME280;20816;50.950;11.108;2023-09-19T11:07:07;98098.75;;;23.37;58.28
34586;BME280;20816;50.950;11.108;2023-09-19T11:09:55;98103.31;;;22.69;58.68
34586;BME280;20816;50.950;11.108;2023-09-19T11:15:03;98105.75;;;23.17;57.34
34586;BME280;20816;50.950;11.108;2023-09-19T11:17:43;98111.72;;;22.53;58.33
34586;BME280;20816;50.950;11.108;2023-09-19T11:30:36;98087.13;;;22.59;59.26
34586;BME280;20816;50.950;11.108;2023-09-19T11:36:09;98088.25;;;22.90;58.30
34586;BME280;20816;50.950;11.108;2023-09-19T11:46:27;98089.06;;;22.46;56.24
34586;BME280;20816;50.950;11.108;2023-09-19T11:49:05;98086.13;;;22.38;55.65
34586;BME280;20816;50.950;11.108;2023-09-19T11:51:42;98088.13;;;22.81;55.03
34586;BME280;20816;50.950;11.108;2023-09-19T11:54:11;98083.97;;;22.88;53.62
34586;BME280;20816;50.950;11.108;2023-09-19T11:56:45;98075.66;;;22.80;53.17
34586;BME280;20816;50.950;11.108;2023-09-19T12:02:06;98088.31;;;22.55;52.87
34586;BME280;20816;50.950;11.108;2023-09-19T12:07:11;98089.31;;;22.77;52.98
34586;BME280;20816;50.950;11.108;2023-09-19T12:09:43;98090.84;;;22.23;54.37
34586;BME280;20816;50.950;11.108;2023-09-19T12:14:50;98082.78;;;21.77;53.86
34586;BME280;20816;50.950;11.108;2023-09-19T12:17:17;98090.53;;;21.69;54.56
34586;BME280;20816;50.950;11.108;2023-09-19T12:19:51;98089.75;;;21.55;54.71
34586;BME280;20816;50.950;11.108;2023-09-19T12:22:19;98079.78;;;21.58;54.11
34586;BME280;20816;50.950;11.108;2023-09-19T12:24:49;98075.66;;;21.65;53.03
34586;BME280;20816;50.950;11.108;2023-09-19T12:27:17;98081.13;;;21.87;52.58
34586;BME280;20816;50.950;11.108;2023-09-19T12:29:45;98075.88;;;22.09;53.13
34586;BME280;20816;50.950;11.108;2023-09-19T12:32:12;98080.28;;;21.98;53.57
34586;BME280;20816;50.950;11.108;2023-09-19T12:34:50;98079.78;;;22.28;53.14
34586;BME280;20816;50.950;11.108;2023-09-19T12:37:20;98078.25;;;22.01;53.21
34586;BME280;20816;50.950;11.108;2023-09-19T12:40:09;98086.47;;;22.22;53.61
34586;BME280;20816;50.950;11.108;2023-09-19T12:42:45;98082.97;;;22.55;53.95
34586;BME280;20816;50.950;11.108;2023-09-19T12:45:13;98082.09;;;22.21;53.10
34586;BME280;20816;50.950;11.108;2023-09-19T12:48:21;98086.66;;;21.73;53.23
34586;BME280;20816;50.950;11.108;2023-09-19T12:51:02;98088.16;;;21.88;53.85
34586;BME280;20816;50.950;11.108;2023-09-19T12:53:38;98087.81;;;22.17;52.68
34586;BME280;20816;50.950;11.108;2023-09-19T12:56:14;98081.91;;;22.00;53.12
34586;BME280;20816;50.950;11.108;2023-09-19T13:01:26;98091.97;;;22.43;52.89
34586;BME280;20816;50.950;11.108;2023-09-19T13:04:18;98085.66;;;22.66;51.79
34586;BME280;20816;50.950;11.108;2023-09-19T13:06:46;98089.31;;;22.65;52.88
34586;BME280;20816;50.950;11.108;2023-09-19T13:09:16;98088.31;;;22.44;52.56
34586;BME280;20816;50.950;11.108;2023-09-19T13:11:43;98089.19;;;22.33;52.31
34586;BME280;20816;50.950;11.108;2023-09-19T13:16:59;98090.91;;;21.99;53.06
34586;BME280;20816;50.950;11.108;2023-09-19T13:22:45;98086.63;;;21.62;54.33
34586;BME280;20816;50.950;11.108;2023-09-19T13:25:17;98085.31;;;22.02;53.77
34586;BME280;20816;50.950;11.108;2023-09-19T13:27:52;98082.50;;;22.04;53.66
34586;BME280;20816;50.950;11.108;2023-09-19T13:30:21;98081.13;;;21.98;53.73
34586;BME280;20816;50.950;11.108;2023-09-19T13:32:48;98073.19;;;22.21;53.70
34586;BME280;20816;50.950;11.108;2023-09-19T13:35:15;98079.78;;;22.28;53.47
34586;BME280;20816;50.950;11.108;2023-09-19T13:37:43;98071.97;;;22.14;53.21
34586;BME280;20816;50.950;11.108;2023-09-19T13:40:14;98075.66;;;22.24;53.93
34586;BME280;20816;50.950;11.108;2023-09-19T13:42:42;98069.69;;;21.96;53.52
34586;BME280;20816;50.950;11.108;2023-09-19T13:45:09;98063.88;;;22.02;53.73
34586;BME280;20816;50.950;11.108;2023-09-19T13:47:40;98069.03;;;21.70;54.30
34586;BME280;20816;50.950;11.108;2023-09-19T13:50:07;98072.03;;;21.66;54.52
34586;BME280;20816;50.950;11.108;2023-09-19T13:52:35;98080.22;;;21.75;54.21
34586;BME280;20816;50.950;11.108;2023-09-19T13:55:02;98074.22;;;21.61;54.14
34586;BME280;20816;50.950;11.108;2023-09-19T13:57:29;98077.38;;;21.66;54.74
34586;BME280;20816;50.950;11.108;2023-09-19T13:59:56;98077.50;;;21.64;54.21
34586;BME280;20816;50.950;11.108;2023-09-19T14:02:23;98090.38;;;21.59;53.86
34586;BME280;20816;50.950;11.108;2023-09-19T14:04:51;98076.44;;;21.43;54.68
34586;BME280;20816;50.950;11.108;2023-09-19T14:07:18;98069.00;;;21.35;55.43
34586;BME280;20816;50.950;11.108;2023-09-19T14:09:47;98077.47;;;21.29;55.07
34586;BME280;20816;50.950;11.108;2023-09-19T14:12:14;98071.66;;;21.35;55.02